createdAt,value
2022-07-30T00:03:08.272Z,20.51
2022-07-30T00:08:08.976Z,20.41
2022-07-30T00:13:09.709Z,20.41
2022-07-30T00:18:10.568Z,20.35
2022-07-30T00:23:11.481Z,20.31
2022-07-30T00:28:11.739Z,20.24
2022-07-30T00:33:12.590Z,20.21
2022-07-30T00:38:13.444Z,20.13
2022-07-30T00:43:14.196Z,20.06
2022-07-30T00:48:14.872Z,20.01
2022-07-30T00:53:15.628Z,19.98
2022-07-30T00:58:16.386Z,19.91
2022-07-30T01:03:17.156Z,19.87
2022-07-30T01:08:17.964Z,19.81
2022-07-30T01:13:18.798Z,19.78
2022-07-30T01:18:19.510Z,19.69
2022-07-30T01:23:20.233Z,19.63
2022-07-30T01:28:20.964Z,19.61
2022-07-30T01:33:21.688Z,19.56
2022-07-30T01:38:22.422Z,19.48
2022-07-30T01:43:23.165Z,19.40
2022-07-30T01:48:23.884Z,19.37
2022-07-30T01:53:24.822Z,19.36
2022-07-30T01:58:25.696Z,19.32
2022-07-30T02:03:26.689Z,19.21
2022-07-30T02:08:27.052Z,19.10
2022-07-30T02:13:27.885Z,19.10
2022-07-30T02:18:28.659Z,19.07
2022-07-30T02:23:29.119Z,19.04
2022-07-30T02:28:29.872Z,18.98
2022-07-30T02:33:30.707Z,18.95
2022-07-30T02:38:31.587Z,18.95
2022-07-30T02:43:35.534Z,18.88
2022-07-30T02:48:35.014Z,18.87
2022-07-30T02:53:33.162Z,18.82
2022-07-30T02:58:33.840Z,18.81
2022-07-30T03:03:34.465Z,18.78
2022-07-30T03:08:35.214Z,18.76
2022-07-30T03:13:35.929Z,18.75
2022-07-30T03:18:36.651Z,18.75
2022-07-30T03:23:37.354Z,18.78
2022-07-30T03:28:38.024Z,18.78
2022-07-30T03:33:39.265Z,18.75
2022-07-30T03:38:39.466Z,18.78
2022-07-30T03:43:40.249Z,18.82
2022-07-30T03:48:40.964Z,18.84
2022-07-30T03:53:41.709Z,18.91
2022-07-30T03:58:42.535Z,18.91
2022-07-30T04:03:43.383Z,18.94
2022-07-30T04:08:44.161Z,19.02
2022-07-30T04:13:44.817Z,19.08
2022-07-30T04:18:52.988Z,19.16
2022-07-30T04:24:03.647Z,19.18
2022-07-30T04:28:47.820Z,19.11
2022-07-30T04:33:47.538Z,19.00
2022-07-30T04:38:48.423Z,19.10
2022-07-30T04:43:49.169Z,19.14
2022-07-30T04:48:49.895Z,19.19
2022-07-30T04:53:50.601Z,19.16
2022-07-30T04:58:51.340Z,19.08
2022-07-30T05:03:52.093Z,19.18
2022-07-30T05:08:53.053Z,19.36
2022-07-30T05:13:53.437Z,19.48
2022-07-30T05:18:54.539Z,19.54
2022-07-30T05:23:55.058Z,19.58
2022-07-30T05:28:56.985Z,19.73
2022-07-30T05:33:58.270Z,19.94
2022-07-30T05:38:57.256Z,19.87
2022-07-30T05:43:57.612Z,19.94
2022-07-30T05:48:59.502Z,19.98
2022-07-30T05:53:59.229Z,20.05
2022-07-30T05:58:59.904Z,19.94
2022-07-30T06:04:00.730Z,19.88
2022-07-30T06:09:01.452Z,19.98
2022-07-30T06:14:02.124Z,20.02
2022-07-30T06:19:02.923Z,20.11
2022-07-30T06:24:03.716Z,19.99
2022-07-30T06:29:04.552Z,20.11
2022-07-30T06:34:06.307Z,20.24
2022-07-30T06:39:06.160Z,20.52
2022-07-30T06:44:06.859Z,20.47
2022-07-30T06:59:56.581Z,20.67
2022-07-30T07:10:32.156Z,21.03
2022-07-30T07:15:37.210Z,20.87
2022-07-30T07:20:33.943Z,21.03
2022-07-30T07:25:33.586Z,20.95
2022-07-30T07:30:34.289Z,21.07
2022-07-30T07:35:48.390Z,21.03
2022-07-30T07:40:36.633Z,21.27
2022-07-30T07:45:36.392Z,21.62
2022-07-30T07:50:37.053Z,21.65
2022-07-30T07:55:47.726Z,21.62
2022-07-30T08:00:48.515Z,21.88
2022-07-30T08:06:05.907Z,21.98
2022-07-30T08:10:50.653Z,21.92
2022-07-30T08:15:50.369Z,22.17
2022-07-30T08:20:51.054Z,22.20
2022-07-30T08:25:51.697Z,22.35
2022-07-30T08:30:52.566Z,22.55
2022-07-30T08:36:03.082Z,22.57
2022-07-30T08:40:54.742Z,22.62
2022-07-30T08:45:54.393Z,22.62
2022-07-30T08:50:55.109Z,22.60
2022-07-30T08:55:58.726Z,22.76
2022-07-30T09:05:57.128Z,23.05
2022-07-30T09:10:57.876Z,23.10
2022-07-30T09:15:58.646Z,23.19
2022-07-30T09:20:59.291Z,23.38
2022-07-30T09:26:00.066Z,23.65
2022-07-30T09:31:00.886Z,23.76
2022-07-30T09:36:01.722Z,23.68
2022-07-30T09:41:12.190Z,23.72
2022-07-30T09:46:04.089Z,23.83
2022-07-30T09:51:03.872Z,23.57
2022-07-30T09:56:04.913Z,23.75
2022-07-30T10:01:05.387Z,23.87
2022-07-30T10:06:06.704Z,23.76
2022-07-30T10:11:09.647Z,23.95
2022-07-30T10:16:07.483Z,24.16
2022-07-30T10:21:08.441Z,24.67
2022-07-30T10:26:09.249Z,25.24
2022-07-30T10:31:47.020Z,24.83
2022-07-30T10:36:11.534Z,24.78
2022-07-30T10:41:11.226Z,24.67
2022-07-30T10:46:22.075Z,24.95
2022-07-30T10:51:18.575Z,24.84
2022-07-30T10:56:13.985Z,25.08
2022-07-30T11:01:17.881Z,25.21
2022-07-30T11:06:14.362Z,25.14
2022-07-30T11:11:19.848Z,25.21
2022-07-30T11:16:16.474Z,25.76
2022-07-30T11:21:16.948Z,25.99
2022-07-30T11:26:16.625Z,25.88
2022-07-30T11:31:19.241Z,26.05
2022-07-30T11:36:18.038Z,26.35
2022-07-30T11:41:18.776Z,26.40
2022-07-30T11:46:19.511Z,26.29
2022-07-30T11:51:21.041Z,26.23
2022-07-30T11:56:20.682Z,26.77
2022-07-30T12:01:21.313Z,26.63
2022-07-30T12:06:22.023Z,26.43
2022-07-30T12:11:22.716Z,26.40
2022-07-30T12:16:23.398Z,26.54
2022-07-30T12:21:24.264Z,26.48
2022-07-30T12:26:26.683Z,26.28
2022-07-30T12:31:25.879Z,26.51
2022-07-30T12:36:26.659Z,26.65
2022-07-30T12:41:28.263Z,26.43
2022-07-30T12:46:27.915Z,26.48
2022-07-30T12:51:28.584Z,26.37
2022-07-30T12:56:29.044Z,26.72
2022-07-30T13:01:29.765Z,26.91
2022-07-30T13:06:30.526Z,27.10
2022-07-30T13:11:31.198Z,27.60
2022-07-30T13:16:31.942Z,27.74
2022-07-30T13:21:32.788Z,27.46
2022-07-30T13:26:33.571Z,26.70
2022-07-30T13:31:42.831Z,26.47
2022-07-30T13:36:35.826Z,26.89
2022-07-30T13:41:35.462Z,26.92
2022-07-30T13:46:36.116Z,26.85
2022-07-30T13:51:36.890Z,26.36
2022-07-30T13:56:40.893Z,26.80
2022-07-30T14:01:38.340Z,26.76
2022-07-30T14:06:39.013Z,26.97
2022-07-30T14:11:39.714Z,26.95
2022-07-30T14:16:45.551Z,26.82
2022-07-30T14:21:41.908Z,26.77
2022-07-30T14:26:41.583Z,26.57
2022-07-30T14:31:42.274Z,26.57
2022-07-30T14:36:43.080Z,26.84
2022-07-30T14:41:43.800Z,26.73
2022-07-30T14:46:52.463Z,26.36
2022-07-30T14:51:46.025Z,26.77
2022-07-30T14:56:45.677Z,26.58
2022-07-30T15:01:46.466Z,26.39
2022-07-30T15:06:47.174Z,26.35
2022-07-30T15:12:23.687Z,26.52
2022-07-30T15:16:49.401Z,26.69
2022-07-30T15:21:49.125Z,26.60
2022-07-30T15:26:49.778Z,26.48
2022-07-30T15:31:50.566Z,26.32
2022-07-30T15:36:51.191Z,25.98
2022-07-30T15:41:52.177Z,26.15
2022-07-30T15:46:52.579Z,25.97
2022-07-30T15:51:53.238Z,25.77
2022-07-30T15:56:54.023Z,25.98
2022-07-30T16:01:54.721Z,25.90
2022-07-30T16:07:02.385Z,25.62
2022-07-30T16:11:56.040Z,25.75
2022-07-30T16:16:56.754Z,25.79
2022-07-30T16:21:57.594Z,25.77
2022-07-30T16:26:58.241Z,25.69
2022-07-30T16:31:59.226Z,25.60
2022-07-30T16:37:00.080Z,25.61
2022-07-30T16:42:00.796Z,25.51
2022-07-30T16:47:01.224Z,25.46
2022-07-30T16:52:02.228Z,25.54
2022-07-30T16:57:03.993Z,25.39
2022-07-30T17:02:04.427Z,25.27
2022-07-30T17:07:03.819Z,25.20
2022-07-30T17:12:04.760Z,25.25
2022-07-30T17:17:05.314Z,25.27
2022-07-30T17:22:06.272Z,25.23
2022-07-30T17:27:06.571Z,25.23
2022-07-30T17:32:07.474Z,25.46
2022-07-30T17:37:08.464Z,25.92
2022-07-30T17:42:09.013Z,26.07
2022-07-30T17:47:14.366Z,26.28
2022-07-30T17:52:10.992Z,26.32
2022-07-30T17:57:10.678Z,26.48
2022-07-30T18:02:11.375Z,26.43
2022-07-30T18:07:12.102Z,25.70
2022-07-30T18:12:12.757Z,25.08
2022-07-30T18:17:14.519Z,24.71
2022-07-30T18:22:14.900Z,24.50
2022-07-30T18:27:14.782Z,24.31
2022-07-30T18:32:15.470Z,24.21
2022-07-30T18:37:16.186Z,24.06
2022-07-30T18:42:16.844Z,23.93
2022-07-30T18:47:17.513Z,23.79
2022-07-30T18:52:18.219Z,23.65
2022-07-30T18:57:18.985Z,23.54
2022-07-30T19:02:19.635Z,23.42
2022-07-30T19:07:20.342Z,23.27
2022-07-30T19:12:21.068Z,23.19
2022-07-30T19:17:21.719Z,23.05
2022-07-30T19:22:29.730Z,22.98
2022-07-30T19:27:23.935Z,22.88
2022-07-30T19:32:23.621Z,22.80
2022-07-30T19:37:24.282Z,22.73
2022-07-30T19:42:24.998Z,22.70
2022-07-30T19:47:25.731Z,22.76
2022-07-30T19:52:26.922Z,22.83
2022-07-30T19:57:53.416Z,22.88
2022-07-30T20:02:28.940Z,22.92
2022-07-30T20:07:28.668Z,22.91
2022-07-30T20:12:29.586Z,22.90
2022-07-30T20:17:30.357Z,22.82
2022-07-30T20:22:31.288Z,22.70
2022-07-30T20:27:37.235Z,22.60
2022-07-30T20:32:33.661Z,22.54
2022-07-30T20:37:33.507Z,22.45
2022-07-30T20:42:35.122Z,22.37
2022-07-30T20:47:38.499Z,22.27
2022-07-30T20:52:35.553Z,22.18
2022-07-30T20:57:56.324Z,22.12
2022-07-30T21:02:37.956Z,22.02
2022-07-30T21:07:37.809Z,21.98
2022-07-30T21:12:38.630Z,21.88
2022-07-30T21:17:39.499Z,21.79
2022-07-30T21:22:40.332Z,21.72
2022-07-30T21:27:41.146Z,21.65
2022-07-30T21:32:42.404Z,21.61
2022-07-30T21:37:42.969Z,21.56
2022-07-30T21:42:48.211Z,21.50
2022-07-30T21:47:47.754Z,21.52
2022-07-30T21:52:44.883Z,21.46
2022-07-30T21:57:45.821Z,21.40
2022-07-30T22:02:52.736Z,21.34
2022-07-30T22:07:47.819Z,21.29
2022-07-30T22:12:47.416Z,21.21
2022-07-30T22:18:00.797Z,21.17
2022-07-30T22:22:49.881Z,21.04
2022-07-30T22:27:56.853Z,20.98
2022-07-30T22:32:50.874Z,20.88
2022-07-30T22:37:50.407Z,20.79
2022-07-30T22:42:51.086Z,20.70
2022-07-30T22:47:55.601Z,20.69
2022-07-30T22:53:00.123Z,20.55
2022-07-30T22:57:54.039Z,20.42
2022-07-30T23:03:00.735Z,20.31
2022-07-30T23:07:54.349Z,20.18
2022-07-30T23:12:55.212Z,20.14
2022-07-30T23:17:55.666Z,20.08
2022-07-30T23:22:56.424Z,20.05
2022-07-30T23:27:57.341Z,19.92
2022-07-30T23:32:58.105Z,19.83
2022-07-30T23:37:58.842Z,19.77
2022-07-30T23:42:59.573Z,19.71
2022-07-30T23:48:02.433Z,19.69
2022-07-30T23:53:01.056Z,19.63
2022-07-30T23:58:01.822Z,19.65
